UTNU

Urgench Airport

Urgench, Uzbekistan
TAF UTNU 170500Z 1706/1806 04012G22KT 8000 NSC TEMPO 1706/1712 01010KT
Issued Valid From Valid To
Nov-17 @ 05:00 UTC
(5 hours ago)
Nov-17 @ 06:00 UTC
(4 hours ago)
Nov-18 @ 06:00 UTC
(in 20 hours)
Nov-17 @ 06:00 to Nov-18 @ 06:00
TAF UTNU 170500Z 1706/1806 04012G22KT 8000 NSC
Wind Visibility Clouds
40° at 12 knots
 Gusting to 22 knots
7,998 meters
  • No significant clouds
Temporary Nov-17 @ 06:00 to Nov-17 @ 12:00
TEMPO 1706/1712 01010KT
Wind
10° at 10 knots
TAF UTNU 170500Z 1706/1806 04012G22KT 8000 NSC TEMPO 1706/1712 01010KT
Issued Nov-17 @ 05:00 UTC
(5 hours ago)
Valid From Nov-17 @ 06:00 UTC
(4 hours ago)
Valid To Nov-18 @ 06:00 UTC
(in 20 hours)
Nov-17 @ 06:00 - Nov-18 @ 06:00
Wind Visibility
40° at 12 knots
 Gusting to 22 knots
7,998 meters
Clouds
  • No significant clouds
Temporary Nov-17 @ 06:00 - Nov-17 @ 12:00
Wind
10° at 10 knots